Latest Weather Observations for Yarrawonga

IDV60801

Issued at 9:03 am EST Sunday 28 May 2017 (issued every 30 minutes, with the page automatically refreshed every 10 minutes)

About weather observations | Map of weather stations | Latest weather observations for VIC | Other Formats
Station Details ID: 081124 Name: YARRAWONGA Lat: -36.03 Lon: 146.03 Height: 128.9 m
Data from the previous 72 hours. | See also: Recent months at Yarrawonga
Date/Time
EST
Temp
°C
App
Temp
°C
Dew
Point
°C
Rel
Hum
%
Delta-T
°C
Wind Press
QNH
hPa
Press
MSL
hPa
Rain since
9am
mm
Dir  Spd
km/h
Gust
km/h
Spd
kts
Gust
kts
28/09:00am 11.2 8.4 10.0 92 0.6 NW 15 22 8 12 1010.8 1010.8 4.2
28/08:30am 10.9 9.0 10.6 98 0.2 NNW 11 15 6 8 1010.6 1010.6 4.2
28/08:00am 10.8 8.2 10.8 100 0.0 NNW 15 19 8 10 1010.4 1010.4 4.2
28/07:30am 10.7 8.9 10.7 100 0.0 N 11 15 6 8 1010.0 1010.0 4.2
28/07:00am 10.5 9.4 10.5 100 0.0 N 7 11 4 6 1009.9 1009.9 4.2
28/06:30am 10.8 9.4 10.8 100 0.0 N 9 11 5 6 1009.9 1009.9 4.2
28/06:00am 10.8 9.0 10.8 100 0.0 N 11 13 6 7 1009.7 1009.7 3.8
28/05:30am 11.1 9.3 10.8 98 0.2 NNW 11 15 6 8 1010.1 1010.1 3.0
28/05:00am 11.1 10.0 10.8 98 0.2 WNW 7 11 4 6 1009.9 1009.9 2.6
28/04:30am 11.1 9.2 10.6 97 0.3 NW 11 19 6 10 1010.4 1010.4 2.0
28/04:00am 11.2 9.3 10.4 95 0.4 NNW 11 15 6 8 1010.5 1010.5 1.0
28/03:30am 11.5 9.1 10.1 91 0.7 NW 13 20 7 11 1010.6 1010.6 0.8
28/03:00am 12.4 9.5 9.6 83 1.4 WNW 15 26 8 14 1011.3 1011.3 0.0
28/02:43am 11.8 8.1 9.5 86 1.2 N 19 43 10 23 1011.7 1011.7 0.0
28/02:30am 11.6 8.7 9.5 87 1.1 NNE 15 22 8 12 1010.1 1010.1 0.0
28/02:00am 11.4 8.8 9.3 87 1.1 NNE 13 17 7 9 1010.6 1010.6 0.0
28/01:30am 11.8 9.2 9.5 86 1.2 NNE 13 20 7 11 1010.8 1010.8 0.0
28/01:00am 11.6 9.5 9.7 88 1.0 NNE 11 17 6 9 1011.3 1011.3 0.0
28/12:30am 12.1 9.6 9.8 86 1.2 NNE 13 19 7 10 1011.6 1011.6 0.0
28/12:00am 12.0 10.4 10.1 88 1.0 NE 9 13 5 7 1012.0 1012.0 0.0
 
Date/Time
EST
Temp
°C
App
Temp
°C
Dew
Point
°C
Rel
Hum
%
Delta-T
°C
Wind Press
QNH
hPa
Press
MSL
hPa
Rain since
9am
mm
Dir  Spd
km/h
Gust
km/h
Spd
kts
Gust
kts
27/11:30pm 12.1 10.1 10.2 88 1.0 NE 11 17 6 9 1012.5 1012.6 0.0
27/11:00pm 12.3 9.9 10.2 87 1.1 NE 13 19 7 10 1012.8 1012.9 0.0
27/10:30pm 11.9 9.9 10.1 89 0.9 NE 11 15 6 8 1013.2 1013.3 0.0
27/10:00pm 11.8 10.2 10.2 90 0.8 NE 9 13 5 7 1013.7 1013.8 0.0
27/09:30pm 11.7 9.6 9.9 89 0.9 NE 11 13 6 7 1014.2 1014.3 0.0
27/09:00pm 12.4 11.1 10.1 86 1.2 NE 7 11 4 6 1014.6 1014.7 0.0
27/08:30pm 12.5 11.3 10.4 87 1.1 NE 7 9 4 5 1014.8 1014.9 0.0
27/08:00pm 12.8 11.6 10.3 85 1.3 NNE 7 9 4 5 1014.8 1014.9 0.0
27/07:30pm 12.3 11.3 10.2 87 1.1 NNE 6 7 3 4 1014.8 1014.9 0.0
27/07:00pm 12.9 11.7 10.4 85 1.3 NNE 7 9 4 5 1014.7 1014.8 0.0
27/06:30pm 12.5 11.3 10.4 87 1.1 NE 7 9 4 5 1014.8 1014.9 0.0
27/06:00pm 12.7 11.7 10.2 85 1.3 NE 6 7 3 4 1014.7 1014.8 0.0
27/05:30pm 13.5 12.4 10.7 83 1.5 NNE 7 9 4 5 1014.6 1014.7 0.0
27/05:00pm 14.9 13.9 11.1 78 2.0 NNE 7 9 4 5 1014.7 1014.8 0.0
27/04:30pm 15.9 14.2 11.1 73 2.6 NNE 11 19 6 10 1015.0 1015.0 0.0
27/04:00pm 16.9 14.4 11.0 68 3.2 NNE 15 20 8 11 1015.2 1015.2 0.0
27/03:30pm 17.0 14.1 11.1 68 3.2 NNE 17 24 9 13 1015.4 1015.4 0.0
27/03:00pm 17.4 15.1 11.7 69 3.1 NNE 15 22 8 12 1015.8 1015.8 0.0
27/02:30pm 16.7 14.7 11.4 71 2.9 NNE 13 19 7 10 1016.2 1016.2 0.0
27/02:00pm 17.5 15.7 12.2 71 2.9 NNE 13 17 7 9 1016.4 1016.4 0.0
27/01:30pm 17.1 15.3 12.0 72 2.8 NNE 13 19 7 10 1016.9 1016.9 0.0
27/01:00pm 16.9 15.4 12.0 73 2.7 NNE 11 17 6 9 1017.5 1017.5 0.0
27/12:30pm 16.5 14.7 12.1 75 2.4 NNE 13 19 7 10 1018.1 1018.1 0.0
27/12:00pm 16.2 14.4 12.2 77 2.2 NNE 13 17 7 9 1018.5 1018.5 0.0
27/11:30am 15.3 13.4 11.7 79 2.0 NNE 13 17 7 9 1019.1 1019.2 0.0
27/11:00am 14.6 13.0 11.6 82 1.6 NNE 11 15 6 8 1019.8 1019.9 0.0
27/10:30am 14.2 13.0 11.7 85 1.3 NNE 9 15 5 8 1020.3 1020.4 0.0
27/10:00am 12.9 11.6 11.1 89 0.9 NNE 9 13 5 7 1020.5 1020.6 0.0
27/09:30am 12.2 10.7 10.6 90 0.8 NNE 9 15 5 8 1020.7 1020.8 0.0
27/09:00am 12.0 10.7 11.4 96 0.3 NE 9 15 5 8 1020.7 1020.8 0.0
27/08:30am 10.4 8.5 10.4 100 0.0 NE 11 13 6 7 1020.7 1020.8 0.0
27/08:00am 9.8 8.1 9.8 100 0.0 NE 9 15 5 8 1020.6 1020.7 0.0
27/07:30am 8.1 7.3 8.0 99 0.0 ENE 2 4 1 2 1020.4 1020.5 0.0
27/07:00am 7.9 6.6 7.8 99 0.0 NE 4 7 2 4 1020.3 1020.4 0.0
27/06:30am 7.7 6.0 7.6 99 0.0 ENE 6 6 3 3 1020.1 1020.2 0.0
27/06:00am 8.0 6.8 7.9 99 0.0 ENE 4 7 2 4 1020.2 1020.3 0.0
27/05:30am 8.1 6.5 8.0 99 0.0 ENE 6 6 3 3 1020.2 1020.3 0.0
27/05:00am 7.8 6.1 7.7 99 0.0 ENE 6 7 3 4 1020.2 1020.3 0.0
27/04:30am 8.0 6.8 7.9 99 0.0 E 4 6 2 3 1020.4 1020.5 0.0
27/04:00am 8.2 6.4 8.1 99 0.0 E 7 7 4 4 1020.4 1020.5 0.0
27/03:30am 8.3 6.7 8.2 99 0.0 ESE 6 6 3 3 1020.7 1020.8 0.0
27/03:00am 8.2 6.6 8.1 99 0.0 E 6 7 3 4 1020.8 1020.9 0.0
27/02:30am 8.6 7.1 8.6 100 0.0 E 6 6 3 3 1021.0 1021.1 0.0
27/02:00am 8.6 7.5 8.6 100 0.0 ENE 4 6 2 3 1021.1 1021.2 0.0
27/01:30am 9.1 7.8 9.1 100 0.0 E 6 7 3 4 1021.2 1021.3 0.0
27/01:00am 9.7 8.5 9.7 100 0.0 ESE 6 7 3 4 1021.3 1021.4 0.0
27/12:30am 9.6 8.4 9.6 100 0.0 E 6 6 3 3 1021.3 1021.4 0.0
27/12:00am 9.8 8.7 9.8 100 0.0 NE 6 7 3 4 1021.6 1021.7 0.0
 
Date/Time
EST
Temp
°C
App
Temp
°C
Dew
Point
°C
Rel
Hum
%
Delta-T
°C
Wind Press
QNH
hPa
Press
MSL
hPa
Rain since
9am
mm
Dir  Spd
km/h
Gust
km/h
Spd
kts
Gust
kts
26/11:30pm 10.2 9.5 10.2 100 0.0 NE 4 6 2 3 1021.5 1021.6 0.0
26/11:00pm 10.3 9.7 10.3 100 0.0 NE 4 7 2 4 1021.5 1021.6 0.0
26/10:30pm 9.5 9.4 9.5 100 0.0 CALM 0 0 0 0 1021.6 1021.7 0.0
26/10:00pm 10.0 9.3 10.0 100 0.0 ENE 4 4 2 2 1021.7 1021.8 0.0
26/09:30pm 10.2 9.5 10.1 99 0.1 E 4 6 2 3 1021.6 1021.7 0.0
26/09:00pm 10.8 10.3 10.6 99 0.1 E 4 6 2 3 1021.6 1021.7 0.0
26/08:30pm 10.7 9.5 10.2 97 0.3 E 7 7 4 4 1021.4 1021.5 0.0
26/08:00pm 11.2 10.7 10.9 98 0.2 E 4 4 2 2 1021.4 1021.5 0.0
26/07:30pm 10.9 9.9 10.4 97 0.3 E 6 7 3 4 1021.2 1021.3 0.0
26/07:00pm 11.6 10.5 10.8 95 0.4 ENE 7 9 4 5 1021.0 1021.1 0.0
26/06:30pm 12.3 10.9 11.0 92 0.7 E 9 11 5 6 1020.9 1021.0 0.0
26/06:00pm 13.2 12.5 11.9 92 0.7 E 7 9 4 5 1021.0 1021.1 0.0
26/05:30pm 13.7 13.2 12.1 90 0.9 E 6 7 3 4 1020.8 1020.9 0.0
26/05:00pm 14.8 14.8 12.3 85 1.4 NE 4 6 2 3 1020.8 1020.9 0.0
26/04:30pm 16.0 15.5 12.2 78 2.1 ENE 6 7 3 4 1020.8 1020.9 0.0
26/04:00pm 16.7 17.0 12.3 75 2.4 E 2 4 1 2 1020.8 1020.9 0.0
26/03:30pm 16.4 16.1 12.6 78 2.1 E 6 7 3 4 1020.8 1020.9 0.0
26/03:00pm 16.3 16.7 12.5 78 2.1 SSE 2 6 1 3 1020.9 1021.0 0.0
26/02:30pm 16.4 16.8 12.4 77 2.2 ENE 2 6 1 3 1020.9 1021.0 0.0
26/02:00pm 16.4 16.1 12.6 78 2.1 ENE 6 7 3 4 1021.2 1021.3 0.0
26/01:30pm 17.2 17.4 12.9 76 2.4 NE 4 7 2 4 1021.6 1021.7 0.0
26/01:00pm 15.7 15.3 12.3 80 1.9 ENE 6 9 3 5 1021.9 1022.0 0.0
26/12:30pm 14.8 14.2 11.6 81 1.7 NE 6 9 3 5 1022.2 1022.3 0.0
26/12:00pm 14.5 13.8 11.5 82 1.6 NE 6 9 3 5 1022.6 1022.7 0.0
26/11:30am 14.3 14.0 11.5 83 1.5 ENE 4 6 2 3 1023.2 1023.2 0.0
26/11:00am 13.8 13.1 11.5 86 1.2 ENE 6 7 3 4 1023.4 1023.4 0.0
26/10:30am 13.2 12.4 11.1 87 1.1 ENE 6 7 3 4 1023.7 1023.7 0.0
26/10:00am 13.4 12.6 10.9 85 1.3 ENE 6 9 3 5 1023.7 1023.7 0.0
26/09:30am 13.3 13.2 10.7 84 1.4 E 2 4 1 2 1023.6 1023.6 0.0
26/09:00am 13.2 13.4 10.6 84 1.4 CALM 0 0 0 0 1023.5 1023.5 0.2
26/08:30am 11.4 10.5 10.6 95 0.4 N 6 7 3 4 1022.9 1023.0 0.2
26/08:00am 11.0 9.9 10.7 98 0.2 N 7 7 4 4 1022.7 1022.8 0.2
26/07:30am 9.8 9.0 9.7 99 0.1 NNE 4 6 2 3 1022.7 1022.8 0.2
26/07:00am 9.7 8.5 9.6 99 0.0 N 6 9 3 5 1022.5 1022.6 0.2
26/06:30am 10.1 8.7 9.6 97 0.3 N 7 9 4 5 1022.4 1022.5 0.2
26/06:00am 11.2 10.8 11.0 99 0.1 NE 4 6 2 3 1022.1 1022.2 0.2
26/05:30am 11.4 11.0 11.2 99 0.1 NNE 4 7 2 4 1021.9 1022.0 0.2
26/05:00am 11.4 10.5 11.2 99 0.1 ENE 7 9 4 5 1021.7 1021.8 0.2
26/04:30am 11.5 10.7 11.0 97 0.3 NNE 6 7 3 4 1021.4 1021.5 0.2
26/04:00am 11.5 11.1 11.0 97 0.3 NE 4 6 2 3 1021.5 1021.6 0.2
26/03:30am 11.7 11.7 11.1 96 0.3 NNE 2 4 1 2 1021.6 1021.7 0.2
26/03:00am 11.6 10.6 11.0 96 0.3 ENE 7 9 4 5 1021.6 1021.7 0.2
26/02:30am 11.7 11.6 10.8 94 0.5 N 2 4 1 2 1021.7 1021.8 0.2
26/02:00am 12.0 12.4 11.1 94 0.5 CALM 0 0 0 0 1021.9 1022.0 0.2
26/01:30am 12.1 11.7 11.0 93 0.6 NNE 4 7 2 4 1021.7 1021.8 0.2
26/01:00am 12.0 11.6 11.1 94 0.5 NE 4 6 2 3 1021.6 1021.7 0.2
26/12:30am 12.1 11.3 11.2 94 0.5 NNE 6 7 3 4 1021.7 1021.8 0.2
26/12:00am 12.3 11.4 11.2 93 0.6 NNE 7 9 4 5 1021.8 1021.9 0.2
 
Date/Time
EST
Temp
°C
App
Temp
°C
Dew
Point
°C
Rel
Hum
%
Delta-T
°C
Wind Press
QNH
hPa
Press
MSL
hPa
Rain since
9am
mm
Dir  Spd
km/h
Gust
km/h
Spd
kts
Gust
kts
25/11:30pm 12.1 11.2 11.5 96 0.3 NNE 7 9 4 5 1021.9 1022.0 0.2
25/11:00pm 11.9 11.6 11.4 97 0.3 NNE 4 7 2 4 1022.0 1022.1 0.2
25/10:30pm 11.9 11.2 11.4 97 0.3 NNE 6 7 3 4 1022.0 1022.1 0.2
25/10:00pm 11.9 11.6 11.4 97 0.3 NE 4 6 2 3 1022.1 1022.2 0.2
25/09:30pm 11.9 11.6 11.3 96 0.3 NE 4 6 2 3 1022.1 1022.2 0.2
25/09:00pm 12.0 11.3 11.4 96 0.3 NNE 6 9 3 5 1021.9 1022.0 0.2
25/08:30pm 11.9 11.5 11.1 95 0.4 NE 4 6 2 3 1022.1 1022.2 0.2
25/08:00pm 12.0 11.6 11.2 95 0.4 ENE 4 6 2 3 1022.0 1022.1 0.2
25/07:30pm 12.4 11.5 11.3 93 0.6 NNE 7 13 4 7 1022.0 1022.1 0.2
25/07:00pm 12.4 10.7 11.3 93 0.6 NNE 11 17 6 9 1021.8 1021.9 0.2
25/06:30pm 12.5 10.9 11.4 93 0.6 NNE 11 15 6 8 1021.8 1021.9 0.2
25/06:00pm 12.5 11.7 11.6 94 0.5 NE 7 9 4 5 1022.0 1022.1 0.2
25/05:30pm 12.5 11.7 11.6 94 0.5 ENE 7 9 4 5 1021.8 1021.9 0.2
25/05:00pm 12.7 11.8 11.4 92 0.7 ENE 7 9 4 5 1021.7 1021.8 0.2
25/04:30pm 13.0 12.1 11.4 90 0.9 E 7 11 4 6 1021.7 1021.8 0.2
25/04:00pm 13.2 12.3 11.3 88 1.0 ENE 7 9 4 5 1021.7 1021.8 0.2
25/03:30pm 13.3 13.0 11.4 88 1.0 ENE 4 6 2 3 1021.7 1021.8 0.2
25/03:00pm 13.3 12.9 11.0 86 1.2 ENE 4 7 2 4 1021.7 1021.8 0.2
25/02:30pm 13.1 12.4 11.3 89 1.0 ENE 6 7 3 4 1021.8 1021.9 0.2
25/02:00pm 12.9 12.2 11.3 90 0.8 ENE 6 9 3 5 1021.9 1022.0 0.2
25/01:30pm 12.3 12.0 11.4 94 0.5 E 4 7 2 4 1022.2 1022.3 0.2
25/01:00pm 12.1 12.5 11.3 95 0.4 CALM 0 2 0 1 1022.6 1022.7 0.0
25/12:30pm 12.1 11.3 11.2 94 0.5 ENE 6 7 3 4 1022.7 1022.8 0.0
25/12:00pm 12.3 12.5 10.7 90 0.8 CALM 0 2 0 1 1023.1 1023.1 0.0
25/11:30am 11.8 12.0 10.7 93 0.6 CALM 0 0 0 0 1023.7 1023.7 0.0
25/11:00am 10.7 10.9 10.5 99 0.1 CALM 0 0 0 0 1024.1 1024.1 0.0
25/10:30am 10.1 9.4 10.1 100 0.0 ENE 4 6 2 3 1023.8 1023.8 0.0
25/10:00am 9.4 8.5 9.4 100 0.0 E 4 6 2 3 1023.6 1023.6 0.0
25/09:30am 8.5 7.8 8.5 100 0.0 ESE 2 4 1 2 1023.5 1023.5 0.0

Other Formats:

Comma delimited format used in spreadsheet applications
http://www.bom.gov.au/fwo/IDV60801/IDV60801.94862.axf

JavaScript Object Notation format (JSON) in row-major order
http://www.bom.gov.au/fwo/IDV60801/IDV60801.94862.json